Time;durP1;ratioP1;P1;durP2;ratioP2;P2;SDS_P1;SDS_P2;PMS_P1;PMS_P2;Temp;Humidity;BMP_temperature;BMP_pressure;BME280_temperature;BME280_humidity;BME280_pressure;Samples;Min_cycle;Max_cycle;Signal;HPM_P1;HPM_P2
2024/01/21 00:00:11;;;;;;;20.88;10.00;;;;;;;-8.82;100.00;97066.47;2066763;28;20046;-54
2024/01/21 00:01:13;;;;;;;21.33;11.15;;;;;;;-8.93;100.00;97059.28;2066333;28;20050;-55
2024/01/21 00:02:14;;;;;;;20.58;10.98;;;;;;;-8.88;100.00;97062.88;2066510;28;20054;-54
2024/01/21 00:03:15;;;;;;;21.77;10.70;;;;;;;-9.14;100.00;97068.38;2066560;28;20482;-54
2024/01/21 00:04:17;;;;;;;19.17;9.57;;;;;;;-9.18;100.00;97071.56;2066361;28;20066;-55
2024/01/21 00:05:18;;;;;;;28.27;12.68;;;;;;;-9.17;100.00;97069.13;2065576;28;20053;-55
2024/01/21 00:06:19;;;;;;;25.35;12.45;;;;;;;-9.24;100.00;97064.59;2066188;28;20046;-54
2024/01/21 00:07:20;;;;;;;20.83;10.93;;;;;;;-9.36;100.00;97072.41;2066380;28;20046;-55
2024/01/21 00:08:21;;;;;;;26.02;11.05;;;;;;;-9.23;100.00;97068.81;2066593;28;20054;-55
2024/01/21 00:09:22;;;;;;;19.65;10.73;;;;;;;-9.30;100.00;97066.84;2066425;28;20394;-55
2024/01/21 00:10:23;;;;;;;21.92;11.35;;;;;;;-9.52;100.00;97074.16;2065253;28;20061;-55
2024/01/21 00:11:24;;;;;;;21.67;10.90;;;;;;;-9.68;100.00;97072.56;2066047;28;20058;-55
2024/01/21 00:12:25;;;;;;;21.20;10.95;;;;;;;-9.79;100.00;97077.06;2066205;28;20054;-54
2024/01/21 00:13:27;;;;;;;22.42;11.82;;;;;;;-9.80;100.00;97072.84;2057262;28;20102;-55
2024/01/21 00:14:28;;;;;;;23.58;12.00;;;;;;;-9.84;100.00;97069.28;2057840;28;20039;-59
2024/01/21 00:15:29;;;;;;;23.67;12.25;;;;;;;-9.94;100.00;97071.28;2066001;28;20053;-56
2024/01/21 00:16:30;;;;;;;22.05;10.75;;;;;;;-9.99;100.00;97073.59;2066590;28;20039;-56
2024/01/21 00:17:31;;;;;;;20.05;10.93;;;;;;;-10.05;100.00;97069.13;2065963;28;20379;-54
2024/01/21 00:18:32;;;;;;;21.48;10.88;;;;;;;-9.82;100.00;97067.72;2066182;28;20061;-54
2024/01/21 00:19:33;;;;;;;23.73;12.20;;;;;;;-9.76;100.00;97073.03;2066156;28;20042;-55
2024/01/21 00:20:34;;;;;;;20.25;11.38;;;;;;;-9.68;100.00;97063.34;2066294;28;20058;-55
2024/01/21 00:21:35;;;;;;;30.77;12.68;;;;;;;-9.64;100.00;97065.25;2066439;28;20489;-55
2024/01/21 00:22:38;;;;;;;24.73;13.15;;;;;;;-9.58;100.00;97062.16;2066574;28;20054;-55
2024/01/21 00:23:39;;;;;;;26.10;12.13;;;;;;;-9.61;100.00;97062.00;2066078;28;20057;-55
2024/01/21 00:24:40;;;;;;;24.95;12.63;;;;;;;-9.40;100.00;97052.09;2066628;28;20046;-54
2024/01/21 00:25:42;;;;;;;24.30;12.35;;;;;;;-9.32;100.00;97063.38;2066514;28;20494;-55
2024/01/21 00:26:43;;;;;;;25.58;13.27;;;;;;;-9.35;100.00;97054.03;2066438;28;20046;-55
2024/01/21 00:27:44;;;;;;;25.58;12.55;;;;;;;-9.34;100.00;97060.78;2065577;28;20054;-56
2024/01/21 00:28:45;;;;;;;24.70;13.40;;;;;;;-9.42;100.00;97061.22;2056109;28;20059;-54
2024/01/21 00:29:46;;;;;;;27.33;12.85;;;;;;;-9.45;100.00;97056.06;2049519;29;20062;-53
2024/01/21 00:30:47;;;;;;;22.23;12.32;;;;;;;-9.48;100.00;97061.78;2057801;28;20054;-54
2024/01/21 00:31:48;;;;;;;24.45;12.77;;;;;;;-9.53;100.00;97054.84;2066656;28;20049;-55
2024/01/21 00:32:49;;;;;;;23.30;11.88;;;;;;;-9.47;100.00;97048.41;2066601;28;20046;-55
2024/01/21 00:33:50;;;;;;;26.92;12.95;;;;;;;-9.41;100.00;97048.72;2066377;28;20483;-55
2024/01/21 00:34:52;;;;;;;24.50;13.57;;;;;;;-9.39;100.00;97046.25;2065916;28;20058;-55
2024/01/21 00:35:53;;;;;;;24.23;12.73;;;;;;;-9.50;100.00;97047.44;2066414;28;20046;-55
2024/01/21 00:36:54;;;;;;;23.85;12.98;;;;;;;-9.51;100.00;97056.63;2065840;28;20255;-54
2024/01/21 00:37:55;;;;;;;27.25;13.00;;;;;;;-9.51;100.00;97056.63;2065486;28;20505;-55
2024/01/21 00:38:56;;;;;;;22.27;12.45;;;;;;;-9.51;100.00;97048.19;2066298;28;20053;-55
2024/01/21 00:39:57;;;;;;;26.35;13.23;;;;;;;-9.53;100.00;97054.84;2066366;28;20042;-56
2024/01/21 00:40:58;;;;;;;24.25;12.88;;;;;;;-9.58;100.00;97057.97;2066298;28;20403;-55
2024/01/21 00:41:59;;;;;;;28.00;13.48;;;;;;;-9.55;100.00;97063.16;2066290;28;20053;-55
2024/01/21 00:43:01;;;;;;;28.40;13.68;;;;;;;-9.60;100.00;97059.53;2065951;28;20062;-55
2024/01/21 00:44:02;;;;;;;27.83;13.27;;;;;;;-9.60;100.00;97061.19;2065818;28;20066;-54
2024/01/21 00:45:04;;;;;;;27.23;13.65;;;;;;;-9.66;100.00;97058.41;2066217;28;20403;-54
2024/01/21 00:46:05;;;;;;;24.50;13.05;;;;;;;-9.87;100.00;97056.59;2066271;28;20410;-55
2024/01/21 00:47:06;;;;;;;26.67;13.00;;;;;;;-10.05;100.00;97059.09;2066114;28;20049;-55
2024/01/21 00:48:08;;;;;;;27.15;13.65;;;;;;;-10.18;100.00;97054.25;2065600;28;20058;-55
2024/01/21 00:49:09;;;;;;;29.55;13.57;;;;;;;-10.27;100.00;97056.31;2066283;28;20046;-55
2024/01/21 00:50:10;;;;;;;23.50;13.10;;;;;;;-10.33;100.00;97059.38;2066428;28;20410;-54
2024/01/21 00:51:11;;;;;;;24.83;13.32;;;;;;;-10.37;100.00;97055.00;2065408;28;20054;-55
2024/01/21 00:52:12;;;;;;;24.95;13.23;;;;;;;-10.22;100.00;97058.22;2065658;28;20061;-54
2024/01/21 00:53:14;;;;;;;28.63;13.95;;;;;;;-10.11;100.00;97055.38;2065861;28;20050;-54
2024/01/21 00:54:15;;;;;;;28.00;14.45;;;;;;;-10.00;100.00;97051.75;2066114;28;20062;-55
2024/01/21 00:55:16;;;;;;;30.88;15.38;;;;;;;-10.06;100.00;97053.97;2066196;28;20493;-54
2024/01/21 00:56:17;;;;;;;28.27;14.65;;;;;;;-9.99;100.00;97043.44;2065505;28;20050;-55
2024/01/21 00:57:19;;;;;;;26.85;14.77;;;;;;;-10.03;100.00;97042.41;2066185;28;20038;-55
2024/01/21 00:58:20;;;;;;;26.08;14.05;;;;;;;-10.14;100.00;97045.19;2065566;28;20057;-55
2024/01/21 00:59:21;;;;;;;29.27;14.70;;;;;;;-10.10;100.00;97045.44;2066122;28;20053;-55
2024/01/21 01:00:25;;;;;;;31.15;14.48;;;;;;;-9.86;100.00;97039.84;2065785;28;20059;-55
2024/01/21 01:01:26;;;;;;;27.15;14.65;;;;;;;-9.72;100.00;97045.56;2065504;28;20073;-54
2024/01/21 01:02:28;;;;;;;28.95;13.73;;;;;;;-9.72;100.00;97041.38;2065862;28;20395;-54
2024/01/21 01:03:29;;;;;;;30.38;14.45;;;;;;;-9.78;100.00;97049.50;2065576;28;20590;-55
2024/01/21 01:04:30;;;;;;;25.95;14.20;;;;;;;-9.80;100.00;97043.53;2065793;28;20050;-54
2024/01/21 01:05:31;;;;;;;26.52;14.85;;;;;;;-9.80;100.00;97036.00;2065807;28;20050;-55
2024/01/21 01:06:33;;;;;;;30.83;14.35;;;;;;;-9.80;100.00;97042.66;2066055;28;20398;-56
2024/01/21 01:07:34;;;;;;;28.15;13.50;;;;;;;-9.70;100.00;97034.78;2066171;28;20042;-54
2024/01/21 01:08:35;;;;;;;26.08;13.88;;;;;;;-9.62;100.00;97030.97;2065449;28;20046;-55
2024/01/21 01:09:37;;;;;;;27.98;14.90;;;;;;;-9.64;100.00;97035.06;2066128;28;20054;-55
2024/01/21 01:10:38;;;;;;;27.27;14.10;;;;;;;-9.76;100.00;97035.31;2066059;28;20051;-55
2024/01/21 01:11:39;;;;;;;25.27;13.63;;;;;;;-9.70;100.00;97039.81;2065560;28;20050;-54
2024/01/21 01:12:40;;;;;;;24.35;13.55;;;;;;;-9.66;100.00;97030.75;2064884;28;20074;-55
2024/01/21 01:13:42;;;;;;;28.33;14.32;;;;;;;-9.60;100.00;97024.34;2066047;28;20050;-54
2024/01/21 01:14:43;;;;;;;29.85;13.68;;;;;;;-9.60;100.00;97021.81;2065414;28;20050;-54
2024/01/21 01:15:44;;;;;;;29.20;13.52;;;;;;;-9.59;100.00;97027.75;2064938;28;20054;-54
2024/01/21 01:16:45;;;;;;;25.73;13.07;;;;;;;-9.60;100.00;97016.81;2065965;28;20057;-54
2024/01/21 01:17:47;;;;;;;29.92;13.48;;;;;;;-9.51;100.00;97025.56;2065951;28;20038;-57
2024/01/21 01:18:49;;;;;;;28.13;14.00;;;;;;;-9.59;100.00;97018.53;2065838;28;20051;-54
2024/01/21 01:19:50;;;;;;;28.48;13.18;;;;;;;-9.56;100.00;97023.72;2065630;28;20062;-54
2024/01/21 01:20:51;;;;;;;33.83;15.20;;;;;;;-9.53;100.00;97022.13;2065980;28;20050;-57
2024/01/21 01:21:52;;;;;;;25.67;13.32;;;;;;;-9.57;100.00;97016.97;2065823;28;20054;-56
2024/01/21 01:22:53;;;;;;;29.45;13.52;;;;;;;-9.58;100.00;97024.44;2065916;28;20038;-55
2024/01/21 01:23:54;;;;;;;24.60;13.02;;;;;;;-9.57;100.00;97029.53;2066077;28;20049;-55
2024/01/21 01:24:55;;;;;;;30.20;13.45;;;;;;;-9.61;100.00;97031.84;2065839;28;20053;-56
2024/01/21 01:25:57;;;;;;;27.85;14.15;;;;;;;-9.64;100.00;97034.22;2066087;28;20494;-55
2024/01/21 01:26:58;;;;;;;26.77;13.25;;;;;;;-9.73;100.00;97036.28;2065916;28;20053;-58
2024/01/21 01:27:59;;;;;;;23.10;12.15;;;;;;;-9.71;100.00;97035.56;2064974;28;20057;-57
2024/01/21 01:29:00;;;;;;;25.20;12.45;;;;;;;-9.60;100.00;97028.50;2065898;28;20046;-57
2024/01/21 01:30:01;;;;;;;26.50;11.52;;;;;;;-9.55;100.00;97024.56;2065582;28;20061;-53
2024/01/21 01:31:02;;;;;;;29.58;13.15;;;;;;;-9.52;100.00;97028.88;2065201;28;20046;-57
2024/01/21 01:32:05;;;;;;;23.00;10.75;;;;;;;-9.53;100.00;97022.13;2066106;28;20061;-56
2024/01/21 01:33:06;;;;;;;23.55;12.23;;;;;;;-9.48;100.00;97021.56;2065272;28;20065;-55
2024/01/21 01:34:07;;;;;;;22.92;12.00;;;;;;;-9.46;100.00;97019.09;2065892;28;20054;-57
2024/01/21 01:35:08;;;;;;;25.88;12.63;;;;;;;-9.44;100.00;97015.00;2065177;28;20081;-56
2024/01/21 01:36:10;;;;;;;25.45;12.13;;;;;;;-9.48;100.00;97018.19;2065526;28;20058;-56
2024/01/21 01:37:11;;;;;;;24.92;11.85;;;;;;;-9.35;100.00;97016.31;2066007;28;20521;-57
2024/01/21 01:38:13;;;;;;;21.10;11.43;;;;;;;-9.36;100.00;97009.53;2065014;28;20061;-55
2024/01/21 01:39:14;;;;;;;22.05;12.15;;;;;;;-9.40;100.00;97009.34;2065514;28;20518;-56
2024/01/21 01:40:17;;;;;;;21.80;11.75;;;;;;;-9.40;100.00;97009.34;2065970;28;20042;-57
2024/01/21 01:41:18;;;;;;;22.70;12.23;;;;;;;-9.48;100.00;97010.63;2065744;28;20497;-55
2024/01/21 01:42:19;;;;;;;23.67;12.18;;;;;;;-9.63;100.00;97008.25;2065812;28;20046;-57
2024/01/21 01:43:21;;;;;;;23.40;12.38;;;;;;;-9.62;100.00;97010.88;2065738;28;20051;-54
2024/01/21 01:44:22;;;;;;;22.85;11.32;;;;;;;-9.60;100.00;97004.22;2065022;28;20050;-56
2024/01/21 01:45:23;;;;;;;22.23;11.38;;;;;;;-9.65;100.00;97000.66;2065939;28;20043;-56
2024/01/21 01:46:25;;;;;;;25.35;12.40;;;;;;;-9.73;100.00;97009.47;2065250;28;20046;-57
2024/01/21 01:47:26;;;;;;;25.20;12.90;;;;;;;-9.81;100.00;97018.31;2065787;28;20042;-57
2024/01/21 01:48:28;;;;;;;24.15;12.48;;;;;;;-9.99;100.00;97018.31;2065360;28;20401;-56
2024/01/21 01:49:29;;;;;;;26.23;12.27;;;;;;;-10.11;100.00;97016.03;2065483;28;20053;-57
2024/01/21 01:50:30;;;;;;;25.45;12.38;;;;;;;-10.21;100.00;97017.28;2065671;28;20046;-56
2024/01/21 01:51:33;;;;;;;25.25;12.00;;;;;;;-10.12;100.00;97013.47;2057121;28;20047;-56
2024/01/21 01:52:34;;;;;;;23.45;12.23;;;;;;;-10.16;100.00;97024.16;2049541;28;20050;-56
2024/01/21 01:53:35;;;;;;;25.02;12.65;;;;;;;-10.16;100.00;97019.97;2056420;28;20058;-57
2024/01/21 01:54:36;;;;;;;28.38;13.55;;;;;;;-10.17;100.00;97020.78;2065783;28;20053;-57
2024/01/21 01:55:37;;;;;;;26.80;12.88;;;;;;;-10.27;100.00;97023.66;2065876;28;20375;-57
2024/01/21 01:56:39;;;;;;;27.38;13.25;;;;;;;-10.38;100.00;97022.25;2065596;28;20065;-57
2024/01/21 01:57:40;;;;;;;28.48;13.13;;;;;;;-10.45;100.00;97016.06;2057089;28;20039;-55
2024/01/21 01:58:41;;;;;;;27.33;12.60;;;;;;;-10.47;100.00;97017.66;2040793;29;20048;-56
2024/01/21 01:59:42;;;;;;;22.88;12.38;;;;;;;-10.48;100.00;97026.84;2041246;29;20075;-56
2024/01/21 02:00:43;;;;;;;28.23;13.73;;;;;;;-10.51;100.00;97026.66;2049072;28;20444;-57
2024/01/21 02:01:44;;;;;;;29.00;14.40;;;;;;;-10.56;100.00;97020.53;2065331;28;20058;-57
2024/01/21 02:02:45;;;;;;;29.50;14.68;;;;;;;-10.55;100.00;97022.28;2057222;28;20043;-56
2024/01/21 02:03:46;;;;;;;28.33;13.77;;;;;;;-10.55;100.00;97027.31;2056590;28;20061;-56
2024/01/21 02:04:48;;;;;;;26.90;13.63;;;;;;;-10.59;100.00;97024.56;2057072;28;20073;-56
2024/01/21 02:05:50;;;;;;;31.35;14.95;;;;;;;-10.69;100.00;97023.22;2056704;28;20462;-57
2024/01/21 02:06:52;;;;;;;28.08;13.80;;;;;;;-10.77;100.00;97020.34;2065632;28;20065;-54
2024/01/21 02:07:53;;;;;;;29.80;16.17;;;;;;;-10.70;100.00;97024.00;2056943;28;20110;-56
2024/01/21 02:08:54;;;;;;;33.47;15.38;;;;;;;-10.66;100.00;97020.91;2049391;28;20054;-56
2024/01/21 02:09:55;;;;;;;28.52;14.60;;;;;;;-10.63;100.00;97020.19;2056647;28;20569;-56
2024/01/21 02:10:56;;;;;;;32.10;15.55;;;;;;;-10.52;100.00;97022.44;2056982;28;20069;-57
2024/01/21 02:11:57;;;;;;;28.63;15.55;;;;;;;-10.38;100.00;97022.25;2056519;28;20054;-56
2024/01/21 02:12:58;;;;;;;38.03;15.05;;;;;;;-10.44;100.00;97022.81;2057445;28;20518;-57
2024/01/21 02:14:00;;;;;;;31.27;14.15;;;;;;;-10.56;100.00;97022.19;2057715;28;20039;-56
2024/01/21 02:15:02;;;;;;;34.33;16.27;;;;;;;-10.60;100.00;97025.34;2057591;28;20058;-56
2024/01/21 02:16:04;;;;;;;32.17;15.55;;;;;;;-10.59;100.00;97025.41;2057388;28;20054;-56
2024/01/21 02:17:05;;;;;;;26.75;14.10;;;;;;;-10.70;100.00;97026.53;2057581;28;20042;-56
2024/01/21 02:18:06;;;;;;;28.77;15.75;;;;;;;-10.75;100.00;97032.97;2057566;28;20050;-56
2024/01/21 02:19:11;;;;;;;57.38;18.20;;;;;;;-10.66;100.00;97031.78;2057699;28;20034;-56
2024/01/21 02:20:12;;;;;;;32.20;16.00;;;;;;;-10.75;100.00;97027.94;2056684;28;20058;-56
2024/01/21 02:21:13;;;;;;;36.65;17.60;;;;;;;-10.69;100.00;97034.16;2056946;28;20061;-56
2024/01/21 02:22:14;;;;;;;31.33;17.08;;;;;;;-10.71;100.00;97035.72;2057785;28;20475;-56
2024/01/21 02:23:15;;;;;;;37.63;16.70;;;;;;;-10.78;100.00;97035.31;2057562;28;20495;-56
2024/01/21 02:24:16;;;;;;;34.42;18.30;;;;;;;-10.86;100.00;97034.91;2057630;28;20062;-56
2024/01/21 02:25:17;;;;;;;29.98;16.70;;;;;;;-10.94;100.00;97034.50;2057550;28;20051;-56
2024/01/21 02:26:19;;;;;;;33.95;17.92;;;;;;;-10.99;100.00;97032.56;2057475;28;20053;-56
2024/01/21 02:27:20;;;;;;;37.70;18.67;;;;;;;-11.01;100.00;97029.97;2057507;28;20374;-56
2024/01/21 02:28:21;;;;;;;39.58;19.20;;;;;;;-11.06;100.00;97036.41;2056470;28;20046;-56
2024/01/21 02:29:22;;;;;;;33.13;16.27;;;;;;;-11.08;100.00;97037.97;2057790;28;20058;-57
2024/01/21 02:30:23;;;;;;;36.13;18.02;;;;;;;-11.18;100.00;97036.59;2057508;28;20038;-56
2024/01/21 02:31:24;;;;;;;35.15;18.05;;;;;;;-11.23;100.00;97029.63;2057197;28;20054;-56
2024/01/21 02:32:26;;;;;;;33.60;18.38;;;;;;;-11.28;100.00;97038.53;2057672;28;20050;-57
2024/01/21 02:33:27;;;;;;;37.53;18.95;;;;;;;-11.29;100.00;97034.31;2057535;28;20050;-56
2024/01/21 02:34:29;;;;;;;36.97;18.33;;;;;;;-11.39;100.00;97031.28;2057052;28;20050;-55
2024/01/21 02:35:30;;;;;;;37.05;19.25;;;;;;;-11.39;100.00;97035.44;2057589;28;20042;-56
2024/01/21 02:36:31;;;;;;;38.90;18.80;;;;;;;-11.44;100.00;97041.88;2057471;28;20045;-56
2024/01/21 02:37:32;;;;;;;38.10;17.77;;;;;;;-11.44;100.00;97042.75;2057485;28;20039;-56
2024/01/21 02:38:34;;;;;;;25.08;10.98;;;;;;;-11.43;100.00;97041.09;2057189;28;20054;-54
2024/01/21 02:39:35;;;;;;;38.35;19.02;;;;;;;-11.36;100.00;97045.66;2057066;28;20503;-57
2024/01/21 02:40:37;;;;;;;37.10;19.77;;;;;;;-11.41;100.00;97047.94;2057175;28;20062;-56
2024/01/21 02:41:38;;;;;;;45.65;20.15;;;;;;;-11.38;100.00;97044.72;2057348;28;20046;-56
2024/01/21 02:42:39;;;;;;;39.53;20.25;;;;;;;-11.40;100.00;97052.16;2057501;28;20057;-56
2024/01/21 02:43:40;;;;;;;42.22;21.00;;;;;;;-11.49;100.00;97055.78;2057111;28;20047;-56
2024/01/21 02:44:41;;;;;;;44.45;21.15;;;;;;;-11.47;100.00;97052.59;2057465;28;20478;-56
2024/01/21 02:45:43;;;;;;;43.65;19.77;;;;;;;-11.52;100.00;97050.63;2057253;28;20051;-56
2024/01/21 02:46:44;;;;;;;43.20;20.63;;;;;;;-11.47;100.00;97052.59;2057512;28;20065;-57
2024/01/21 02:47:45;;;;;;;44.45;20.33;;;;;;;-11.45;100.00;97046.03;2057016;28;20063;-57
2024/01/21 02:48:46;;;;;;;42.53;20.25;;;;;;;-11.59;100.00;97036.91;2057426;28;20050;-56
2024/01/21 02:49:47;;;;;;;37.90;19.35;;;;;;;-11.62;100.00;97050.13;2057534;28;20047;-56
2024/01/21 02:50:48;;;;;;;43.65;20.13;;;;;;;-11.64;100.00;97043.31;2057145;28;20061;-57
2024/01/21 02:51:49;;;;;;;40.55;19.58;;;;;;;-11.58;100.00;97053.66;2057429;28;20043;-57
2024/01/21 02:52:50;;;;;;;37.17;18.95;;;;;;;-11.72;100.00;97044.53;2057417;28;20057;-57
2024/01/21 02:53:52;;;;;;;37.13;19.83;;;;;;;-11.78;100.00;97050.94;2057575;28;20042;-55
2024/01/21 02:54:53;;;;;;;41.83;19.73;;;;;;;-11.85;100.00;97053.84;2057100;28;20062;-57
2024/01/21 02:55:54;;;;;;;38.47;19.77;;;;;;;-11.91;100.00;97052.69;2057429;28;20047;-55
2024/01/21 02:56:55;;;;;;;42.78;20.30;;;;;;;-11.93;100.00;97040.06;2057454;28;20053;-56
2024/01/21 02:57:56;;;;;;;46.15;20.77;;;;;;;-11.89;100.00;97039.47;2057370;28;20457;-55
2024/01/21 02:58:57;;;;;;;41.80;20.75;;;;;;;-11.79;100.00;97049.22;2057058;28;20058;-56
2024/01/21 02:59:59;;;;;;;44.35;20.00;;;;;;;-11.81;100.00;97034.88;2057383;28;20049;-56
2024/01/21 03:01:00;;;;;;;42.78;20.02;;;;;;;-11.81;100.00;97042.38;2058202;28;20050;-57
2024/01/21 03:02:01;;;;;;;41.00;19.73;;;;;;;-11.82;100.00;97036.47;2059036;28;20402;-57
2024/01/21 03:03:02;;;;;;;43.03;20.13;;;;;;;-11.85;100.00;97038.81;2058938;28;20043;-56
2024/01/21 03:04:03;;;;;;;40.15;20.77;;;;;;;-11.85;100.00;97040.47;2059032;28;20053;-56
2024/01/21 03:05:05;;;;;;;46.20;21.48;;;;;;;-11.82;100.00;97043.16;2058594;28;20055;-56
2024/01/21 03:06:06;;;;;;;45.25;20.65;;;;;;;-11.77;100.00;97037.59;2058875;28;20047;-56
2024/01/21 03:07:07;;;;;;;83.80;25.85;;;;;;;-11.72;100.00;97039.50;2058916;28;20062;-56
2024/01/21 03:08:09;;;;;;;43.17;20.65;;;;;;;-11.80;100.00;97039.09;2058908;28;20047;-55
2024/01/21 03:09:10;;;;;;;47.47;21.05;;;;;;;-11.84;100.00;97035.56;2058769;28;20058;-56
2024/01/21 03:10:11;;;;;;;38.03;20.15;;;;;;;-11.84;100.00;97043.06;2058498;28;20046;-57
2024/01/21 03:11:12;;;;;;;46.85;21.25;;;;;;;-11.74;100.00;97041.06;2058510;28;20514;-56
2024/01/21 03:12:13;;;;;;;46.17;21.40;;;;;;;-11.75;100.00;97041.84;2061767;28;20061;-56
2024/01/21 03:13:14;;;;;;;44.75;21.55;;;;;;;-11.80;100.00;97031.56;2066605;28;20041;-56
2024/01/21 03:14:15;;;;;;;43.90;20.95;;;;;;;-11.74;100.00;97036.06;2066760;28;20045;-56
2024/01/21 03:15:16;;;;;;;43.85;20.95;;;;;;;-11.70;100.00;97030.44;2066655;28;20387;-56
2024/01/21 03:16:17;;;;;;;43.72;20.73;;;;;;;-11.69;100.00;97033.00;2066484;28;20050;-57
2024/01/21 03:17:19;;;;;;;48.20;21.48;;;;;;;-11.64;100.00;97029.13;2066492;28;20038;-57
2024/01/21 03:18:20;;;;;;;41.40;19.95;;;;;;;-11.57;100.00;97025.31;2066876;28;20050;-57
2024/01/21 03:19:21;;;;;;;46.10;21.52;;;;;;;-11.59;100.00;97022.72;2066486;28;20068;-56
2024/01/21 03:20:23;;;;;;;48.97;19.42;;;;;;;-11.52;100.00;97023.91;2066754;28;20506;-57
2024/01/21 03:21:24;;;;;;;46.90;22.15;;;;;;;-11.47;100.00;97021.66;2067040;28;20049;-56
2024/01/21 03:22:25;;;;;;;44.42;20.75;;;;;;;-11.50;100.00;97017.31;2066792;28;20485;-57
2024/01/21 03:23:26;;;;;;;43.47;19.90;;;;;;;-11.48;100.00;97015.78;2066042;28;20050;-56
2024/01/21 03:24:27;;;;;;;43.90;21.27;;;;;;;-11.43;100.00;97016.88;2067034;28;20054;-57
2024/01/21 03:25:28;;;;;;;48.13;20.63;;;;;;;-11.36;100.00;97005.53;2066844;28;20050;-56
2024/01/21 03:26:29;;;;;;;45.90;21.38;;;;;;;-11.39;100.00;96996.19;2067074;28;20041;-56
2024/01/21 03:27:30;;;;;;;42.88;18.80;;;;;;;-11.44;100.00;97005.16;2066241;28;20050;-57
2024/01/21 03:28:31;;;;;;;44.20;21.55;;;;;;;-11.36;100.00;97003.91;2065861;28;20065;-56
2024/01/21 03:29:33;;;;;;;48.60;21.15;;;;;;;-11.36;100.00;97003.03;2066812;28;20088;-55
2024/01/21 03:30:34;;;;;;;49.50;22.85;;;;;;;-11.35;100.00;97005.63;2067009;28;20046;-56
2024/01/21 03:31:35;;;;;;;43.00;19.90;;;;;;;-11.32;100.00;97004.91;2066994;28;20038;-56
2024/01/21 03:32:36;;;;;;;47.92;21.75;;;;;;;-11.36;100.00;97003.03;2066496;28;20418;-56
2024/01/21 03:33:38;;;;;;;44.78;19.20;;;;;;;-11.35;100.00;96997.25;2067027;28;20050;-56
2024/01/21 03:34:42;;;;;;;45.72;21.23;;;;;;;-11.33;100.00;97006.56;2058279;28;20046;-56
2024/01/21 03:35:43;;;;;;;42.67;20.95;;;;;;;-11.30;100.00;96997.47;2057811;28;20442;-57
2024/01/21 03:36:44;;;;;;;37.42;17.17;;;;;;;-11.25;100.00;96994.44;2066497;28;20054;-56
2024/01/21 03:37:45;;;;;;;45.22;19.23;;;;;;;-11.22;100.00;96992.09;2066939;28;20041;-56
2024/01/21 03:38:50;;;;;;;36.28;15.07;;;;;;;-11.20;100.00;96990.53;2066540;28;20062;-56
2024/01/21 03:39:51;;;;;;;40.42;17.20;;;;;;;-11.18;100.00;96993.97;2066712;28;20050;-56
2024/01/21 03:40:52;;;;;;;48.22;21.35;;;;;;;-11.18;100.00;96988.09;2066813;28;20046;-56
2024/01/21 03:41:53;;;;;;;37.47;18.50;;;;;;;-11.22;100.00;96992.09;2066826;28;20489;-56
2024/01/21 03:42:54;;;;;;;45.65;19.73;;;;;;;-11.19;100.00;96993.91;2057451;28;20054;-56
2024/01/21 03:43:56;;;;;;;40.72;19.98;;;;;;;-11.24;100.00;96998.66;2058108;28;20058;-56
2024/01/21 03:44:57;;;;;;;40.35;20.38;;;;;;;-11.33;100.00;96996.53;2066328;28;20062;-56
2024/01/21 03:45:58;;;;;;;41.85;19.73;;;;;;;-11.35;100.00;96994.72;2066904;28;20046;-56
2024/01/21 03:47:00;;;;;;;35.70;18.88;;;;;;;-11.33;100.00;96996.53;2066438;28;20058;-57
2024/01/21 03:48:01;;;;;;;40.92;18.85;;;;;;;-11.33;100.00;97000.69;2066724;28;20046;-56
2024/01/21 03:49:02;;;;;;;36.13;18.73;;;;;;;-11.40;100.00;97007.03;2066784;28;20053;-56
2024/01/21 03:50:04;;;;;;;42.20;20.05;;;;;;;-11.52;100.00;96992.97;2065736;28;20050;-56
2024/01/21 03:51:08;;;;;;;38.67;19.60;;;;;;;-11.52;100.00;97003.00;2066034;28;20050;-57
2024/01/21 03:52:09;;;;;;;38.05;19.98;;;;;;;-11.51;100.00;96998.06;2066673;28;20058;-56
2024/01/21 03:53:11;;;;;;;41.92;21.63;;;;;;;-11.53;100.00;97007.16;2066604;28;20042;-57
2024/01/21 03:54:12;;;;;;;41.92;18.30;;;;;;;-11.58;100.00;97014.41;2066599;28;20618;-56
2024/01/21 03:55:16;;;;;;;41.85;18.75;;;;;;;-11.58;100.00;97016.06;2066626;28;20053;-56
2024/01/21 03:56:18;;;;;;;38.08;18.48;;;;;;;-11.62;100.00;97021.69;2066648;28;20042;-56
2024/01/21 03:57:19;;;;;;;36.80;17.50;;;;;;;-11.60;100.00;97016.00;2066618;28;20041;-56
2024/01/21 03:58:20;;;;;;;39.95;18.95;;;;;;;-11.59;100.00;97019.34;2066528;28;20054;-56
2024/01/21 03:59:21;;;;;;;38.65;19.25;;;;;;;-11.48;100.00;97013.28;2066694;28;20042;-56
2024/01/21 04:00:22;;;;;;;31.75;15.00;;;;;;;-11.40;100.00;97019.56;2065927;28;20483;-56
2024/01/21 04:01:23;;;;;;;33.55;16.77;;;;;;;-11.43;100.00;97021.03;2066774;28;20041;-56
2024/01/21 04:02:25;;;;;;;29.58;14.70;;;;;;;-11.39;100.00;97017.91;2066273;28;20050;-57
2024/01/21 04:03:26;;;;;;;19.83;10.18;;;;;;;-11.38;100.00;97025.53;2066592;28;20049;-55
2024/01/21 04:04:27;;;;;;;33.58;16.13;;;;;;;-11.36;100.00;97010.53;2066712;28;20395;-55
2024/01/21 04:05:28;;;;;;;24.30;10.55;;;;;;;-11.33;100.00;97019.09;2058110;28;20050;-56
2024/01/21 04:06:29;;;;;;;30.65;16.35;;;;;;;-11.36;100.00;97021.47;2057823;28;20043;-57
2024/01/21 04:07:31;;;;;;;30.60;16.25;;;;;;;-11.42;100.00;97015.25;2066578;28;20498;-56
2024/01/21 04:08:32;;;;;;;30.75;14.52;;;;;;;-11.49;100.00;97016.56;2066702;28;20050;-57
2024/01/21 04:09:33;;;;;;;31.90;16.88;;;;;;;-11.52;100.00;97016.38;2066171;28;20065;-56
2024/01/21 04:10:34;;;;;;;37.72;17.05;;;;;;;-11.53;100.00;97009.66;2066120;28;20054;-56
2024/01/21 04:11:35;;;;;;;34.65;16.85;;;;;;;-11.55;100.00;97013.72;2066176;28;20042;-57
2024/01/21 04:12:37;;;;;;;20.58;8.52;;;;;;;-11.61;100.00;97011.75;2065671;28;20062;-56
2024/01/21 04:13:39;;;;;;;31.15;15.50;;;;;;;-11.63;100.00;97014.94;2066513;28;20042;-56
2024/01/21 04:14:40;;;;;;;26.30;10.68;;;;;;;-11.71;100.00;97016.16;2066576;28;20054;-53
2024/01/21 04:15:41;;;;;;;29.48;15.05;;;;;;;-11.68;100.00;97021.34;2066435;28;20478;-54
2024/01/21 04:16:42;;;;;;;28.55;14.35;;;;;;;-11.77;100.00;97016.69;2057897;28;20053;-57
2024/01/21 04:17:43;;;;;;;32.42;14.57;;;;;;;-11.87;100.00;97019.50;2058076;28;20046;-56
2024/01/21 04:18:45;;;;;;;33.92;16.33;;;;;;;-11.87;100.00;97019.50;2066616;28;20073;-56
2024/01/21 04:19:46;;;;;;;32.70;14.90;;;;;;;-11.88;100.00;97025.31;2066498;28;20050;-56
2024/01/21 04:20:47;;;;;;;37.35;15.48;;;;;;;-11.88;100.00;97018.66;2065499;28;20054;-57
2024/01/21 04:21:49;;;;;;;31.30;15.57;;;;;;;-11.86;100.00;97021.25;2066648;28;20049;-55
2024/01/21 04:22:50;;;;;;;35.28;17.17;;;;;;;-11.89;100.00;97021.94;2065877;28;20057;-57
2024/01/21 04:23:51;;;;;;;37.22;15.73;;;;;;;-11.93;100.00;97017.53;2066377;28;20510;-56
2024/01/21 04:24:52;;;;;;;34.78;16.75;;;;;;;-12.01;100.00;97009.59;2065755;28;20058;-55
2024/01/21 04:25:53;;;;;;;31.35;15.27;;;;;;;-12.02;100.00;97012.88;2065987;28;20054;-56
2024/01/21 04:26:54;;;;;;;31.48;15.18;;;;;;;-12.02;100.00;97009.53;2066373;28;20414;-55
2024/01/21 04:27:55;;;;;;;30.75;13.18;;;;;;;-12.01;99.80;97006.22;2066457;28;20046;-55
2024/01/21 04:28:56;;;;;;;36.45;16.08;;;;;;;-12.03;99.79;97006.16;2066107;28;20038;-56
2024/01/21 04:29:57;;;;;;;28.48;15.10;;;;;;;-12.02;100.00;97002.00;2066443;28;20050;-57
2024/01/21 04:30:58;;;;;;;37.35;15.43;;;;;;;-12.05;100.00;96999.34;2066507;28;20049;-57
2024/01/21 04:32:00;;;;;;;30.10;14.98;;;;;;;-12.08;100.00;96984.13;2066368;28;20058;-55
2024/01/21 04:33:01;;;;;;;31.40;15.15;;;;;;;-12.04;99.80;96986.03;2066472;28;20049;-57
2024/01/21 04:34:02;;;;;;;29.88;15.32;;;;;;;-12.07;100.00;96986.72;2057225;28;20055;-56
2024/01/21 04:35:04;;;;;;;27.05;12.45;;;;;;;-12.12;99.80;96987.25;2057269;28;20055;-57
2024/01/21 04:36:05;;;;;;;32.63;14.20;;;;;;;-12.12;100.00;96988.09;2066017;28;20054;-56